PSPOL SBGW-SBJR
Flight info
| Callsign | PSPOL |
|---|---|
| Flight time | 0h 56m |
| Altitude | 9000 |
| Route | DCT SCR DCT |
| Aircraft | C206/L-SDFG/C |
Departure
| Time | 2026-04-18 14:51 |
|---|---|
| Airport | Edu Chaves Field (SBGW) |
Arrival
| Time | 2026-04-18 15:47 |
|---|---|
| Airport | Jacarepaguá - Roberto Marinho Airport (SBJR) |
| Time | Latitude | Longitude | Altitude | Speed | Heading |
|---|---|---|---|---|---|
| 2026-04-18 14:40 | -22.79514 | -45.20617 | 1753 ft | 0 kts | 276° |
| 2026-04-18 14:46 | -22.79514 | -45.20618 | 1753 ft | 1 kts | 276° |
| 2026-04-18 14:47 | -22.79496 | -45.20606 | 1752 ft | 6 kts | 48° |
| 2026-04-18 14:47 | -22.79448 | -45.20576 | 1755 ft | 10 kts | 3° |
| 2026-04-18 14:47 | -22.79368 | -45.20557 | 1751 ft | 13 kts | 28° |
| 2026-04-18 14:47 | -22.79282 | -45.20503 | 1757 ft | 15 kts | 27° |
| 2026-04-18 14:48 | -22.79187 | -45.20478 | 1761 ft | 14 kts | 359° |
| 2026-04-18 14:48 | -22.79087 | -45.20479 | 1762 ft | 15 kts | 358° |
| 2026-04-18 14:48 | -22.78973 | -45.20482 | 1764 ft | 18 kts | 359° |
| 2026-04-18 14:48 | -22.78837 | -45.20484 | 1764 ft | 21 kts | 358° |
| 2026-04-18 14:49 | -22.78690 | -45.20487 | 1765 ft | 21 kts | 358° |
| 2026-04-18 14:49 | -22.78554 | -45.20489 | 1765 ft | 18 kts | 0° |
| 2026-04-18 14:49 | -22.78482 | -45.20488 | 1765 ft | 5 kts | 102° |
| 2026-04-18 14:49 | -22.78504 | -45.20489 | 1764 ft | 0 kts | 176° |
| 2026-04-18 14:50 | -22.78579 | -45.20487 | 1768 ft | 32 kts | 179° |
| 2026-04-18 14:50 | -22.78967 | -45.20478 | 1764 ft | 80 kts | 179° |
| 2026-04-18 14:50 | -22.79544 | -45.20506 | 2045 ft | 81 kts | 180° |
| 2026-04-18 14:51 | -22.80121 | -45.20525 | 2337 ft | 83 kts | 182° |
| 2026-04-18 14:51 | -22.80749 | -45.20565 | 2524 ft | 97 kts | 184° |
| 2026-04-18 14:51 | -22.81420 | -45.20599 | 2782 ft | 96 kts | 181° |
| 2026-04-18 14:51 | -22.82082 | -45.20550 | 3039 ft | 96 kts | 176° |
| 2026-04-18 14:52 | -22.82736 | -45.20502 | 3335 ft | 93 kts | 175° |
| 2026-04-18 14:52 | -22.83381 | -45.20468 | 3628 ft | 91 kts | 183° |
| 2026-04-18 14:52 | -22.84019 | -45.20408 | 3847 ft | 92 kts | 179° |
| 2026-04-18 14:52 | -22.84657 | -45.20325 | 4178 ft | 91 kts | 179° |
| 2026-04-18 14:53 | -22.85267 | -45.20254 | 4257 ft | 92 kts | 180° |
| 2026-04-18 14:53 | -22.85929 | -45.20215 | 4376 ft | 98 kts | 186° |
| 2026-04-18 14:53 | -22.86600 | -45.20169 | 4655 ft | 93 kts | 184° |
| 2026-04-18 14:53 | -22.87246 | -45.20068 | 4909 ft | 95 kts | 182° |
| 2026-04-18 14:54 | -22.87893 | -45.19979 | 5178 ft | 94 kts | 183° |
| 2026-04-18 14:54 | -22.88527 | -45.19965 | 5432 ft | 89 kts | 189° |
| 2026-04-18 14:54 | -22.89167 | -45.20003 | 5613 ft | 91 kts | 192° |
| 2026-04-18 14:54 | -22.89792 | -45.20049 | 5806 ft | 95 kts | 192° |
| 2026-04-18 14:55 | -22.90442 | -45.20084 | 6082 ft | 89 kts | 192° |
| 2026-04-18 14:55 | -22.91069 | -45.20122 | 6271 ft | 100 kts | 195° |
| 2026-04-18 14:55 | -22.91770 | -45.20111 | 6569 ft | 98 kts | 172° |
| 2026-04-18 14:55 | -22.92337 | -45.19634 | 6767 ft | 114 kts | 135° |
| 2026-04-18 14:56 | -22.92732 | -45.18930 | 7046 ft | 109 kts | 122° |
| 2026-04-18 14:56 | -22.93079 | -45.18203 | 7310 ft | 106 kts | 122° |
| 2026-04-18 14:56 | -22.93391 | -45.17487 | 7574 ft | 107 kts | 107° |
| 2026-04-18 14:56 | -22.93420 | -45.16633 | 7732 ft | 120 kts | 93° |
| 2026-04-18 14:57 | -22.93457 | -45.15689 | 7865 ft | 130 kts | 94° |
| 2026-04-18 14:57 | -22.93507 | -45.14689 | 8005 ft | 133 kts | 95° |
| 2026-04-18 14:57 | -22.93549 | -45.13669 | 8137 ft | 136 kts | 94° |
| 2026-04-18 14:57 | -22.93580 | -45.12647 | 8266 ft | 136 kts | 94° |
| 2026-04-18 14:58 | -22.93610 | -45.11619 | 8393 ft | 137 kts | 94° |
| 2026-04-18 14:58 | -22.93656 | -45.10604 | 8518 ft | 136 kts | 95° |
| 2026-04-18 14:58 | -22.93693 | -45.09577 | 8636 ft | 136 kts | 94° |
| 2026-04-18 14:58 | -22.93731 | -45.08560 | 8760 ft | 134 kts | 95° |
| 2026-04-18 14:59 | -22.93763 | -45.07548 | 8889 ft | 135 kts | 94° |
| 2026-04-18 14:59 | -22.93801 | -45.06499 | 8930 ft | 145 kts | 95° |
| 2026-04-18 14:59 | -22.93838 | -45.05406 | 8926 ft | 133 kts | 95° |
| 2026-04-18 14:59 | -22.93869 | -45.04452 | 8918 ft | 131 kts | 95° |
| 2026-04-18 15:00 | -22.93907 | -45.03416 | 8925 ft | 143 kts | 94° |
| 2026-04-18 15:00 | -22.93945 | -45.02320 | 8934 ft | 148 kts | 97° |
| 2026-04-18 15:00 | -22.93966 | -45.01189 | 8935 ft | 151 kts | 94° |
| 2026-04-18 15:00 | -22.94001 | -45.00046 | 8929 ft | 151 kts | 95° |
| 2026-04-18 15:01 | -22.94045 | -44.98912 | 8918 ft | 149 kts | 95° |
| 2026-04-18 15:01 | -22.94088 | -44.97783 | 8917 ft | 150 kts | 95° |
| 2026-04-18 15:01 | -22.94127 | -44.96650 | 8914 ft | 150 kts | 95° |
| 2026-04-18 15:01 | -22.94172 | -44.95515 | 8916 ft | 150 kts | 95° |
| 2026-04-18 15:02 | -22.94219 | -44.94386 | 8916 ft | 150 kts | 95° |
| 2026-04-18 15:02 | -22.94264 | -44.93254 | 8912 ft | 150 kts | 95° |
| 2026-04-18 15:02 | -22.94309 | -44.92142 | 8904 ft | 150 kts | 95° |
| 2026-04-18 15:02 | -22.94355 | -44.91012 | 8905 ft | 150 kts | 95° |
| 2026-04-18 15:03 | -22.94404 | -44.89881 | 8905 ft | 150 kts | 95° |
| 2026-04-18 15:03 | -22.94455 | -44.88758 | 8906 ft | 149 kts | 95° |
| 2026-04-18 15:03 | -22.94484 | -44.87637 | 8902 ft | 149 kts | 92° |
| 2026-04-18 15:03 | -22.94467 | -44.86517 | 8903 ft | 148 kts | 91° |
| 2026-04-18 15:04 | -22.94452 | -44.85399 | 8900 ft | 148 kts | 91° |
| 2026-04-18 15:04 | -22.94437 | -44.84278 | 8897 ft | 148 kts | 91° |
| 2026-04-18 15:04 | -22.94423 | -44.83163 | 8898 ft | 147 kts | 91° |
| 2026-04-18 15:04 | -22.94414 | -44.82070 | 8896 ft | 146 kts | 91° |
| 2026-04-18 15:05 | -22.94396 | -44.80960 | 8892 ft | 147 kts | 90° |
| 2026-04-18 15:05 | -22.94370 | -44.79848 | 8899 ft | 148 kts | 89° |
| 2026-04-18 15:05 | -22.94336 | -44.78726 | 8905 ft | 148 kts | 89° |
| 2026-04-18 15:05 | -22.94294 | -44.77603 | 8897 ft | 149 kts | 89° |
| 2026-04-18 15:06 | -22.94254 | -44.76489 | 8890 ft | 149 kts | 89° |
| 2026-04-18 15:06 | -22.94225 | -44.75359 | 8866 ft | 149 kts | 89° |
| 2026-04-18 15:06 | -22.94244 | -44.74228 | 8828 ft | 150 kts | 100° |
| 2026-04-18 15:06 | -22.94410 | -44.73104 | 8811 ft | 151 kts | 102° |
| 2026-04-18 15:07 | -22.94588 | -44.71979 | 8819 ft | 151 kts | 103° |
| 2026-04-18 15:07 | -22.94766 | -44.70863 | 8794 ft | 148 kts | 102° |
| 2026-04-18 15:07 | -22.94944 | -44.69774 | 8735 ft | 149 kts | 103° |
| 2026-04-18 15:07 | -22.95120 | -44.68666 | 8698 ft | 149 kts | 103° |
| 2026-04-18 15:08 | -22.95298 | -44.67552 | 8671 ft | 150 kts | 102° |
| 2026-04-18 15:08 | -22.95463 | -44.66429 | 8678 ft | 150 kts | 100° |
| 2026-04-18 15:08 | -22.95600 | -44.65302 | 8722 ft | 150 kts | 99° |
| 2026-04-18 15:08 | -22.95692 | -44.64185 | 8677 ft | 148 kts | 97° |
| 2026-04-18 15:09 | -22.95782 | -44.63061 | 8619 ft | 151 kts | 96° |
| 2026-04-18 15:09 | -22.95888 | -44.61926 | 8642 ft | 151 kts | 97° |
| 2026-04-18 15:09 | -22.95988 | -44.60797 | 8665 ft | 149 kts | 97° |
| 2026-04-18 15:09 | -22.96080 | -44.59698 | 8634 ft | 148 kts | 97° |
| 2026-04-18 15:10 | -22.96175 | -44.58584 | 8610 ft | 148 kts | 97° |
| 2026-04-18 15:10 | -22.96268 | -44.57473 | 8614 ft | 148 kts | 97° |
| 2026-04-18 15:10 | -22.96361 | -44.56360 | 8608 ft | 148 kts | 97° |
| 2026-04-18 15:10 | -22.96455 | -44.55248 | 8626 ft | 148 kts | 97° |
| 2026-04-18 15:11 | -22.96548 | -44.54138 | 8630 ft | 148 kts | 97° |
| 2026-04-18 15:11 | -22.96642 | -44.53027 | 8629 ft | 148 kts | 97° |
| 2026-04-18 15:11 | -22.96734 | -44.51928 | 8643 ft | 148 kts | 97° |
| 2026-04-18 15:11 | -22.96829 | -44.50819 | 8667 ft | 146 kts | 97° |
| 2026-04-18 15:12 | -22.96924 | -44.49737 | 8712 ft | 142 kts | 97° |
| 2026-04-18 15:12 | -22.97015 | -44.48671 | 8757 ft | 141 kts | 97° |
| 2026-04-18 15:12 | -22.97107 | -44.47605 | 8804 ft | 142 kts | 97° |
| 2026-04-18 15:12 | -22.97172 | -44.46889 | 8857 ft | 146 kts | 98° |
| 2026-04-18 15:13 | -22.97301 | -44.45429 | 8868 ft | 145 kts | 97° |
| 2026-04-18 15:13 | -22.97401 | -44.44332 | 8873 ft | 147 kts | 97° |
| 2026-04-18 15:13 | -22.97502 | -44.43215 | 8871 ft | 149 kts | 97° |
| 2026-04-18 15:13 | -22.97602 | -44.42106 | 8876 ft | 147 kts | 97° |
| 2026-04-18 15:14 | -22.97698 | -44.41014 | 8876 ft | 147 kts | 97° |
| 2026-04-18 15:14 | -22.97796 | -44.39910 | 8873 ft | 147 kts | 97° |
| 2026-04-18 15:14 | -22.97894 | -44.38811 | 8874 ft | 146 kts | 97° |
| 2026-04-18 15:15 | -22.97918 | -44.36606 | 8857 ft | 146 kts | 91° |
| 2026-04-18 15:15 | -22.97907 | -44.35506 | 8857 ft | 146 kts | 91° |
| 2026-04-18 15:15 | -22.97897 | -44.34406 | 8857 ft | 146 kts | 91° |
| 2026-04-18 15:15 | -22.97886 | -44.33306 | 8856 ft | 145 kts | 90° |
| 2026-04-18 15:16 | -22.97877 | -44.32210 | 8853 ft | 145 kts | 91° |
| 2026-04-18 15:16 | -22.97868 | -44.31114 | 8852 ft | 145 kts | 91° |
| 2026-04-18 15:16 | -22.97851 | -44.30024 | 8851 ft | 145 kts | 89° |
| 2026-04-18 15:16 | -22.97783 | -44.28921 | 8853 ft | 147 kts | 87° |
| 2026-04-18 15:17 | -22.97709 | -44.27812 | 8854 ft | 147 kts | 87° |
| 2026-04-18 15:17 | -22.97635 | -44.26720 | 8852 ft | 146 kts | 87° |
| 2026-04-18 15:17 | -22.97566 | -44.25622 | 8857 ft | 145 kts | 87° |
| 2026-04-18 15:17 | -22.97499 | -44.24531 | 8856 ft | 145 kts | 87° |
| 2026-04-18 15:18 | -22.97431 | -44.23439 | 8854 ft | 144 kts | 86° |
| 2026-04-18 15:18 | -22.97364 | -44.22362 | 8860 ft | 143 kts | 88° |
| 2026-04-18 15:18 | -22.97290 | -44.21277 | 8863 ft | 146 kts | 87° |
| 2026-04-18 15:18 | -22.97241 | -44.20547 | 8863 ft | 147 kts | 88° |
| 2026-04-18 15:19 | -22.97165 | -44.19442 | 8868 ft | 148 kts | 87° |
| 2026-04-18 15:19 | -22.97104 | -44.18322 | 8863 ft | 150 kts | 88° |
| 2026-04-18 15:19 | -22.97048 | -44.17191 | 8862 ft | 148 kts | 89° |
| 2026-04-18 15:19 | -22.96991 | -44.16086 | 8869 ft | 147 kts | 88° |
| 2026-04-18 15:20 | -22.96936 | -44.14981 | 8868 ft | 147 kts | 88° |
| 2026-04-18 15:20 | -22.96873 | -44.13854 | 8857 ft | 152 kts | 88° |
| 2026-04-18 15:20 | -22.96814 | -44.12701 | 8853 ft | 153 kts | 89° |
| 2026-04-18 15:20 | -22.96761 | -44.11560 | 8851 ft | 150 kts | 88° |
| 2026-04-18 15:21 | -22.96706 | -44.10438 | 8847 ft | 149 kts | 88° |
| 2026-04-18 15:21 | -22.96648 | -44.09332 | 8845 ft | 148 kts | 89° |
| 2026-04-18 15:21 | -22.96594 | -44.08227 | 8845 ft | 146 kts | 89° |
| 2026-04-18 15:21 | -22.96540 | -44.07125 | 8846 ft | 146 kts | 89° |
| 2026-04-18 15:22 | -22.96487 | -44.06016 | 8835 ft | 147 kts | 88° |
| 2026-04-18 15:22 | -22.96437 | -44.04906 | 8835 ft | 147 kts | 89° |
| 2026-04-18 15:22 | -22.96388 | -44.03791 | 8841 ft | 149 kts | 89° |
| 2026-04-18 15:22 | -22.96337 | -44.02655 | 8848 ft | 151 kts | 89° |
| 2026-04-18 15:23 | -22.96283 | -44.01522 | 8847 ft | 150 kts | 89° |
| 2026-04-18 15:23 | -22.96232 | -44.00411 | 8845 ft | 149 kts | 89° |
| 2026-04-18 15:23 | -22.96183 | -43.99289 | 8843 ft | 149 kts | 89° |
| 2026-04-18 15:23 | -22.96135 | -43.98170 | 8838 ft | 149 kts | 89° |
| 2026-04-18 15:24 | -22.96087 | -43.97047 | 8836 ft | 148 kts | 89° |
| 2026-04-18 15:24 | -22.96040 | -43.95926 | 8834 ft | 148 kts | 89° |
| 2026-04-18 15:24 | -22.95995 | -43.94806 | 8834 ft | 148 kts | 89° |
| 2026-04-18 15:24 | -22.95951 | -43.93687 | 8833 ft | 148 kts | 89° |
| 2026-04-18 15:25 | -22.95906 | -43.92570 | 8833 ft | 148 kts | 88° |
| 2026-04-18 15:25 | -22.95821 | -43.91453 | 8831 ft | 149 kts | 86° |
| 2026-04-18 15:25 | -22.95728 | -43.90334 | 8829 ft | 149 kts | 86° |
| 2026-04-18 15:25 | -22.95639 | -43.89214 | 8827 ft | 148 kts | 86° |
| 2026-04-18 15:26 | -22.95550 | -43.88101 | 8827 ft | 148 kts | 86° |
| 2026-04-18 15:26 | -22.95460 | -43.86999 | 8826 ft | 148 kts | 86° |
| 2026-04-18 15:26 | -22.95370 | -43.85883 | 8827 ft | 149 kts | 86° |
| 2026-04-18 15:26 | -22.95281 | -43.84763 | 8826 ft | 149 kts | 86° |
| 2026-04-18 15:27 | -22.95420 | -43.83676 | 8826 ft | 145 kts | 116° |
| 2026-04-18 15:27 | -22.95897 | -43.82727 | 8836 ft | 143 kts | 131° |
| 2026-04-18 15:27 | -22.96488 | -43.81859 | 8838 ft | 143 kts | 131° |
| 2026-04-18 15:27 | -22.97083 | -43.80987 | 8839 ft | 144 kts | 132° |
| 2026-04-18 15:28 | -22.97710 | -43.80138 | 8838 ft | 144 kts | 134° |
| 2026-04-18 15:28 | -22.98337 | -43.79312 | 8838 ft | 144 kts | 135° |
| 2026-04-18 15:28 | -22.98973 | -43.78474 | 8839 ft | 144 kts | 135° |
| 2026-04-18 15:28 | -22.99611 | -43.77635 | 8839 ft | 144 kts | 135° |
| 2026-04-18 15:29 | -23.00276 | -43.76833 | 8837 ft | 142 kts | 141° |
| 2026-04-18 15:29 | -23.00986 | -43.76091 | 8836 ft | 142 kts | 142° |
| 2026-04-18 15:29 | -23.01699 | -43.75347 | 8836 ft | 142 kts | 142° |
| 2026-04-18 15:29 | -23.02412 | -43.74604 | 8836 ft | 142 kts | 142° |
| 2026-04-18 15:30 | -23.03125 | -43.73862 | 8836 ft | 142 kts | 142° |
| 2026-04-18 15:30 | -23.03839 | -43.73119 | 8836 ft | 142 kts | 142° |
| 2026-04-18 15:30 | -23.04557 | -43.72376 | 8836 ft | 142 kts | 142° |
| 2026-04-18 15:30 | -23.05275 | -43.71635 | 8836 ft | 142 kts | 142° |
| 2026-04-18 15:31 | -23.05972 | -43.70878 | 8835 ft | 144 kts | 136° |
| 2026-04-18 15:31 | -23.06595 | -43.70017 | 8835 ft | 145 kts | 131° |
| 2026-04-18 15:31 | -23.07184 | -43.69119 | 8834 ft | 145 kts | 130° |
| 2026-04-18 15:31 | -23.07766 | -43.68224 | 8834 ft | 145 kts | 130° |
| 2026-04-18 15:32 | -23.08348 | -43.67330 | 8834 ft | 145 kts | 130° |
| 2026-04-18 15:32 | -23.08929 | -43.66439 | 8834 ft | 144 kts | 130° |
| 2026-04-18 15:32 | -23.09512 | -43.65548 | 8834 ft | 144 kts | 130° |
| 2026-04-18 15:32 | -23.10097 | -43.64654 | 8834 ft | 144 kts | 130° |
| 2026-04-18 15:33 | -23.10679 | -43.63765 | 8832 ft | 144 kts | 130° |
| 2026-04-18 15:33 | -23.11262 | -43.62874 | 8838 ft | 144 kts | 130° |
| 2026-04-18 15:33 | -23.11840 | -43.61986 | 8836 ft | 144 kts | 130° |
| 2026-04-18 15:33 | -23.12388 | -43.61073 | 8835 ft | 145 kts | 123° |
| 2026-04-18 15:34 | -23.12853 | -43.60114 | 8832 ft | 145 kts | 122° |
| 2026-04-18 15:34 | -23.13325 | -43.59142 | 8833 ft | 145 kts | 122° |
| 2026-04-18 15:34 | -23.13796 | -43.58172 | 8834 ft | 145 kts | 122° |
| 2026-04-18 15:34 | -23.14269 | -43.57203 | 8833 ft | 145 kts | 123° |
| 2026-04-18 15:35 | -23.14739 | -43.56235 | 8831 ft | 145 kts | 122° |
| 2026-04-18 15:35 | -23.15213 | -43.55266 | 8831 ft | 145 kts | 123° |
| 2026-04-18 15:35 | -23.15688 | -43.54300 | 8740 ft | 149 kts | 123° |
| 2026-04-18 15:35 | -23.16185 | -43.53292 | 8570 ft | 153 kts | 123° |
| 2026-04-18 15:36 | -23.16690 | -43.52270 | 8402 ft | 154 kts | 123° |
| 2026-04-18 15:36 | -23.17199 | -43.51242 | 8232 ft | 155 kts | 123° |
| 2026-04-18 15:36 | -23.17708 | -43.50208 | 8062 ft | 155 kts | 123° |
| 2026-04-18 15:36 | -23.18215 | -43.49175 | 7893 ft | 155 kts | 123° |
| 2026-04-18 15:37 | -23.18721 | -43.48144 | 7723 ft | 154 kts | 123° |
| 2026-04-18 15:37 | -23.19225 | -43.47115 | 7555 ft | 154 kts | 123° |
| 2026-04-18 15:37 | -23.19730 | -43.46082 | 7385 ft | 154 kts | 123° |
| 2026-04-18 15:37 | -23.20233 | -43.45054 | 7220 ft | 154 kts | 123° |
| 2026-04-18 15:38 | -23.20728 | -43.44037 | 7059 ft | 154 kts | 123° |
| 2026-04-18 15:38 | -23.21079 | -43.42948 | 6879 ft | 155 kts | 91° |
| 2026-04-18 15:38 | -23.20636 | -43.42028 | 6626 ft | 130 kts | 27° |
| 2026-04-18 15:38 | -23.19854 | -43.41932 | 6348 ft | 107 kts | 343° |
| 2026-04-18 15:39 | -23.19109 | -43.42032 | 6094 ft | 109 kts | 349° |
| 2026-04-18 15:39 | -23.18361 | -43.41860 | 5850 ft | 117 kts | 26° |
| 2026-04-18 15:39 | -23.17689 | -43.41353 | 5608 ft | 118 kts | 31° |
| 2026-04-18 15:39 | -23.17028 | -43.40829 | 5361 ft | 116 kts | 32° |
| 2026-04-18 15:40 | -23.16403 | -43.40320 | 5105 ft | 109 kts | 32° |
| 2026-04-18 15:40 | -23.15808 | -43.39833 | 4852 ft | 105 kts | 32° |
| 2026-04-18 15:40 | -23.15233 | -43.39361 | 4607 ft | 101 kts | 32° |
| 2026-04-18 15:40 | -23.14652 | -43.38887 | 4376 ft | 108 kts | 32° |
| 2026-04-18 15:41 | -23.14037 | -43.38380 | 4153 ft | 112 kts | 33° |
| 2026-04-18 15:41 | -23.13337 | -43.38087 | 3917 ft | 108 kts | 356° |
| 2026-04-18 15:41 | -23.12583 | -43.38055 | 3687 ft | 109 kts | 358° |
| 2026-04-18 15:41 | -23.11859 | -43.38009 | 3556 ft | 98 kts | 358° |
| 2026-04-18 15:42 | -23.11195 | -43.37970 | 3450 ft | 97 kts | 358° |
| 2026-04-18 15:42 | -23.10525 | -43.37930 | 3350 ft | 96 kts | 358° |
| 2026-04-18 15:42 | -23.09856 | -43.37889 | 3252 ft | 96 kts | 358° |
| 2026-04-18 15:42 | -23.09193 | -43.37849 | 3154 ft | 95 kts | 358° |
| 2026-04-18 15:43 | -23.08536 | -43.37809 | 3061 ft | 94 kts | 359° |
| 2026-04-18 15:43 | -23.07881 | -43.37768 | 2964 ft | 94 kts | 359° |
| 2026-04-18 15:43 | -23.07230 | -43.37728 | 2862 ft | 93 kts | 359° |
| 2026-04-18 15:43 | -23.06577 | -43.37688 | 2700 ft | 93 kts | 359° |
| 2026-04-18 15:44 | -23.05949 | -43.37648 | 2530 ft | 90 kts | 359° |
| 2026-04-18 15:44 | -23.05323 | -43.37611 | 2315 ft | 92 kts | 359° |
| 2026-04-18 15:44 | -23.04690 | -43.37573 | 2073 ft | 91 kts | 0° |
| 2026-04-18 15:44 | -23.04067 | -43.37535 | 1834 ft | 89 kts | 0° |
| 2026-04-18 15:45 | -23.03448 | -43.37498 | 1592 ft | 88 kts | 1° |
| 2026-04-18 15:45 | -23.02845 | -43.37461 | 1380 ft | 81 kts | 360° |
| 2026-04-18 15:45 | -23.02298 | -43.37429 | 1210 ft | 76 kts | 2° |
| 2026-04-18 15:45 | -23.01760 | -43.37400 | 1024 ft | 80 kts | 1° |
| 2026-04-18 15:46 | -23.01183 | -43.37376 | 872 ft | 84 kts | 1° |
| 2026-04-18 15:46 | -23.00596 | -43.37344 | 682 ft | 83 kts | 5° |
| 2026-04-18 15:46 | -23.00018 | -43.37301 | 435 ft | 85 kts | 4° |
| 2026-04-18 15:46 | -22.99409 | -43.37265 | 137 ft | 88 kts | 3° |
| 2026-04-18 15:47 | -22.98842 | -43.37229 | 9 ft | 71 kts | 1° |
| 2026-04-18 15:47 | -22.98455 | -43.37205 | 16 ft | 32 kts | 2° |
| 2026-04-18 15:47 | -22.98324 | -43.37197 | 16 ft | 2 kts | 6° |
| 2026-04-18 15:47 | -22.98308 | -43.37195 | 16 ft | 6 kts | 7° |
| 2026-04-18 15:48 | -22.98280 | -43.37136 | 17 ft | 12 kts | 97° |
| 2026-04-18 15:48 | -22.98329 | -43.37109 | 17 ft | 11 kts | 183° |
| 2026-04-18 15:48 | -22.98424 | -43.37115 | 15 ft | 16 kts | 183° |
| 2026-04-18 15:48 | -22.98543 | -43.37124 | 13 ft | 17 kts | 181° |
| 2026-04-18 15:49 | -22.98658 | -43.37130 | 11 ft | 16 kts | 184° |
| 2026-04-18 15:49 | -22.98750 | -43.37130 | 10 ft | 9 kts | 134° |
| 2026-04-18 15:49 | -22.98762 | -43.37083 | 12 ft | 6 kts | 162° |
| 2026-04-18 15:49 | -22.98775 | -43.37084 | 12 ft | 0 kts | 186° |